sensor_id;sensor_type;location;lat;lon;timestamp;P1;durP1;ratioP1;P2;durP2;ratioP2
11893;SDS011;6006;49.696;8.662;2023-12-20T00:00:34;5.67;;;4.17;;
11893;SDS011;6006;49.696;8.662;2023-12-20T00:03:02;9.03;;;4.63;;
11893;SDS011;6006;49.696;8.662;2023-12-20T00:05:29;7.53;;;4.67;;
11893;SDS011;6006;49.696;8.662;2023-12-20T00:07:57;5.57;;;3.40;;
11893;SDS011;6006;49.696;8.662;2023-12-20T00:10:24;6.30;;;4.33;;
11893;SDS011;6006;49.696;8.662;2023-12-20T00:12:52;5.80;;;4.17;;
11893;SDS011;6006;49.696;8.662;2023-12-20T00:15:19;5.90;;;3.97;;
11893;SDS011;6006;49.696;8.662;2023-12-20T00:17:46;5.27;;;4.37;;
11893;SDS011;6006;49.696;8.662;2023-12-20T00:20:13;4.17;;;3.10;;
11893;SDS011;6006;49.696;8.662;2023-12-20T00:22:40;5.10;;;3.50;;
11893;SDS011;6006;49.696;8.662;2023-12-20T00:25:07;5.17;;;3.37;;
11893;SDS011;6006;49.696;8.662;2023-12-20T00:27:34;6.17;;;4.27;;
11893;SDS011;6006;49.696;8.662;2023-12-20T00:30:02;4.13;;;3.50;;
11893;SDS011;6006;49.696;8.662;2023-12-20T00:32:30;7.70;;;3.77;;
11893;SDS011;6006;49.696;8.662;2023-12-20T00:34:57;5.17;;;3.47;;
11893;SDS011;6006;49.696;8.662;2023-12-20T00:37:24;5.13;;;3.27;;
11893;SDS011;6006;49.696;8.662;2023-12-20T00:39:50;5.13;;;3.27;;
11893;SDS011;6006;49.696;8.662;2023-12-20T00:42:17;4.80;;;3.33;;
11893;SDS011;6006;49.696;8.662;2023-12-20T00:44:44;4.00;;;3.53;;
11893;SDS011;6006;49.696;8.662;2023-12-20T00:47:12;2.80;;;2.40;;
11893;SDS011;6006;49.696;8.662;2023-12-20T00:49:39;4.10;;;3.50;;
11893;SDS011;6006;49.696;8.662;2023-12-20T00:52:06;4.63;;;2.83;;
11893;SDS011;6006;49.696;8.662;2023-12-20T00:54:33;3.30;;;2.87;;
11893;SDS011;6006;49.696;8.662;2023-12-20T00:57:00;3.70;;;3.20;;
11893;SDS011;6006;49.696;8.662;2023-12-20T00:59:27;3.17;;;2.83;;
11893;SDS011;6006;49.696;8.662;2023-12-20T01:01:53;3.73;;;2.70;;
11893;SDS011;6006;49.696;8.662;2023-12-20T01:04:22;4.93;;;2.63;;
11893;SDS011;6006;49.696;8.662;2023-12-20T01:06:48;3.43;;;2.67;;
11893;SDS011;6006;49.696;8.662;2023-12-20T01:09:15;3.37;;;2.57;;
11893;SDS011;6006;49.696;8.662;2023-12-20T01:11:43;3.47;;;2.57;;
11893;SDS011;6006;49.696;8.662;2023-12-20T01:14:11;3.90;;;2.47;;
11893;SDS011;6006;49.696;8.662;2023-12-20T01:16:38;3.40;;;2.33;;
11893;SDS011;6006;49.696;8.662;2023-12-20T01:19:05;2.67;;;2.17;;
11893;SDS011;6006;49.696;8.662;2023-12-20T01:21:33;4.70;;;2.83;;
11893;SDS011;6006;49.696;8.662;2023-12-20T01:24:00;3.50;;;2.47;;
11893;SDS011;6006;49.696;8.662;2023-12-20T01:26:27;3.30;;;2.13;;
11893;SDS011;6006;49.696;8.662;2023-12-20T01:28:54;2.40;;;2.20;;
11893;SDS011;6006;49.696;8.662;2023-12-20T01:31:20;3.33;;;2.50;;
11893;SDS011;6006;49.696;8.662;2023-12-20T01:33:47;4.77;;;3.13;;
11893;SDS011;6006;49.696;8.662;2023-12-20T01:36:14;3.60;;;2.67;;
11893;SDS011;6006;49.696;8.662;2023-12-20T01:38:42;4.60;;;2.50;;
11893;SDS011;6006;49.696;8.662;2023-12-20T01:41:09;2.90;;;2.63;;
11893;SDS011;6006;49.696;8.662;2023-12-20T01:43:36;3.00;;;2.70;;
11893;SDS011;6006;49.696;8.662;2023-12-20T01:46:03;5.50;;;3.20;;
11893;SDS011;6006;49.696;8.662;2023-12-20T01:48:31;4.63;;;2.57;;
11893;SDS011;6006;49.696;8.662;2023-12-20T01:50:58;3.53;;;2.60;;
11893;SDS011;6006;49.696;8.662;2023-12-20T01:53:26;3.27;;;2.97;;
11893;SDS011;6006;49.696;8.662;2023-12-20T01:55:56;3.63;;;3.00;;
11893;SDS011;6006;49.696;8.662;2023-12-20T01:58:25;3.47;;;2.87;;
11893;SDS011;6006;49.696;8.662;2023-12-20T02:00:52;3.67;;;2.67;;
11893;SDS011;6006;49.696;8.662;2023-12-20T02:03:20;4.10;;;2.20;;
11893;SDS011;6006;49.696;8.662;2023-12-20T02:05:47;3.60;;;2.70;;
11893;SDS011;6006;49.696;8.662;2023-12-20T02:08:14;3.80;;;2.37;;
11893;SDS011;6006;49.696;8.662;2023-12-20T02:10:41;3.37;;;2.77;;
11893;SDS011;6006;49.696;8.662;2023-12-20T02:13:09;3.80;;;2.30;;
11893;SDS011;6006;49.696;8.662;2023-12-20T02:15:36;2.90;;;2.60;;
11893;SDS011;6006;49.696;8.662;2023-12-20T02:18:03;3.07;;;2.63;;
11893;SDS011;6006;49.696;8.662;2023-12-20T02:20:31;3.63;;;2.50;;
11893;SDS011;6006;49.696;8.662;2023-12-20T02:22:59;4.43;;;2.23;;
11893;SDS011;6006;49.696;8.662;2023-12-20T02:25:26;3.03;;;2.20;;
11893;SDS011;6006;49.696;8.662;2023-12-20T02:27:52;2.50;;;2.00;;
11893;SDS011;6006;49.696;8.662;2023-12-20T02:30:19;1.73;;;1.63;;
11893;SDS011;6006;49.696;8.662;2023-12-20T02:32:46;2.10;;;1.80;;
11893;SDS011;6006;49.696;8.662;2023-12-20T02:35:14;2.03;;;1.93;;
11893;SDS011;6006;49.696;8.662;2023-12-20T02:37:41;1.77;;;1.67;;
11893;SDS011;6006;49.696;8.662;2023-12-20T02:40:10;2.67;;;2.20;;
11893;SDS011;6006;49.696;8.662;2023-12-20T02:42:37;2.27;;;2.10;;
11893;SDS011;6006;49.696;8.662;2023-12-20T02:45:04;2.10;;;1.97;;
11893;SDS011;6006;49.696;8.662;2023-12-20T02:47:31;2.50;;;1.87;;
11893;SDS011;6006;49.696;8.662;2023-12-20T02:49:58;2.23;;;2.03;;
11893;SDS011;6006;49.696;8.662;2023-12-20T02:52:25;3.07;;;2.27;;
11893;SDS011;6006;49.696;8.662;2023-12-20T02:54:53;2.60;;;2.03;;
11893;SDS011;6006;49.696;8.662;2023-12-20T02:57:21;3.13;;;2.10;;
11893;SDS011;6006;49.696;8.662;2023-12-20T02:59:48;2.43;;;1.70;;
11893;SDS011;6006;49.696;8.662;2023-12-20T03:02:15;2.60;;;2.10;;
11893;SDS011;6006;49.696;8.662;2023-12-20T03:04:42;2.00;;;1.57;;
11893;SDS011;6006;49.696;8.662;2023-12-20T03:07:09;1.83;;;1.57;;
11893;SDS011;6006;49.696;8.662;2023-12-20T03:09:37;1.80;;;1.70;;
11893;SDS011;6006;49.696;8.662;2023-12-20T03:12:04;2.17;;;1.63;;
11893;SDS011;6006;49.696;8.662;2023-12-20T03:14:32;2.30;;;1.70;;
11893;SDS011;6006;49.696;8.662;2023-12-20T03:16:59;2.53;;;1.80;;
11893;SDS011;6006;49.696;8.662;2023-12-20T03:19:26;1.60;;;1.50;;
11893;SDS011;6006;49.696;8.662;2023-12-20T03:21:54;2.43;;;1.90;;
11893;SDS011;6006;49.696;8.662;2023-12-20T03:24:21;1.37;;;1.27;;
11893;SDS011;6006;49.696;8.662;2023-12-20T03:26:47;1.63;;;1.50;;
11893;SDS011;6006;49.696;8.662;2023-12-20T03:29:14;2.27;;;1.73;;
11893;SDS011;6006;49.696;8.662;2023-12-20T03:31:42;2.73;;;1.80;;
11893;SDS011;6006;49.696;8.662;2023-12-20T03:34:09;2.20;;;1.53;;
11893;SDS011;6006;49.696;8.662;2023-12-20T03:36:37;2.20;;;1.53;;
11893;SDS011;6006;49.696;8.662;2023-12-20T03:39:03;1.80;;;1.37;;
11893;SDS011;6006;49.696;8.662;2023-12-20T03:41:31;1.40;;;1.30;;
11893;SDS011;6006;49.696;8.662;2023-12-20T03:43:57;1.70;;;1.57;;
11893;SDS011;6006;49.696;8.662;2023-12-20T03:46:24;2.10;;;1.90;;
11893;SDS011;6006;49.696;8.662;2023-12-20T03:48:53;1.50;;;1.30;;
11893;SDS011;6006;49.696;8.662;2023-12-20T03:51:19;1.37;;;1.27;;
11893;SDS011;6006;49.696;8.662;2023-12-20T03:53:46;1.77;;;1.50;;
11893;SDS011;6006;49.696;8.662;2023-12-20T03:56:13;1.50;;;1.40;;
11893;SDS011;6006;49.696;8.662;2023-12-20T03:58:40;2.87;;;1.40;;
11893;SDS011;6006;49.696;8.662;2023-12-20T04:01:09;1.93;;;1.63;;
11893;SDS011;6006;49.696;8.662;2023-12-20T04:03:37;2.10;;;1.77;;
11893;SDS011;6006;49.696;8.662;2023-12-20T04:06:06;2.87;;;1.93;;
11893;SDS011;6006;49.696;8.662;2023-12-20T04:08:33;2.27;;;1.63;;
11893;SDS011;6006;49.696;8.662;2023-12-20T04:11:00;2.60;;;1.77;;
11893;SDS011;6006;49.696;8.662;2023-12-20T04:13:27;2.33;;;2.00;;
11893;SDS011;6006;49.696;8.662;2023-12-20T04:15:54;2.73;;;2.30;;
11893;SDS011;6006;49.696;8.662;2023-12-20T04:18:21;3.60;;;1.93;;
11893;SDS011;6006;49.696;8.662;2023-12-20T04:20:47;2.93;;;2.10;;
11893;SDS011;6006;49.696;8.662;2023-12-20T04:23:16;2.70;;;2.00;;
11893;SDS011;6006;49.696;8.662;2023-12-20T04:25:43;2.50;;;2.30;;
11893;SDS011;6006;49.696;8.662;2023-12-20T04:28:10;2.80;;;2.60;;
11893;SDS011;6006;49.696;8.662;2023-12-20T04:30:36;2.73;;;2.27;;
11893;SDS011;6006;49.696;8.662;2023-12-20T04:33:03;4.23;;;2.70;;
11893;SDS011;6006;49.696;8.662;2023-12-20T04:35:30;2.67;;;2.10;;
11893;SDS011;6006;49.696;8.662;2023-12-20T04:37:59;3.60;;;2.27;;
11893;SDS011;6006;49.696;8.662;2023-12-20T04:40:28;2.60;;;2.40;;
11893;SDS011;6006;49.696;8.662;2023-12-20T04:42:54;5.20;;;2.67;;
11893;SDS011;6006;49.696;8.662;2023-12-20T04:45:21;3.73;;;2.43;;
11893;SDS011;6006;49.696;8.662;2023-12-20T04:47:49;3.30;;;2.40;;
11893;SDS011;6006;49.696;8.662;2023-12-20T04:50:16;4.37;;;2.77;;
11893;SDS011;6006;49.696;8.662;2023-12-20T04:52:44;4.47;;;2.50;;
11893;SDS011;6006;49.696;8.662;2023-12-20T04:55:12;2.90;;;2.70;;
11893;SDS011;6006;49.696;8.662;2023-12-20T04:57:40;2.70;;;2.50;;
11893;SDS011;6006;49.696;8.662;2023-12-20T05:00:08;2.83;;;2.23;;
11893;SDS011;6006;49.696;8.662;2023-12-20T05:02:35;3.57;;;3.03;;
11893;SDS011;6006;49.696;8.662;2023-12-20T05:05:03;2.70;;;2.30;;
11893;SDS011;6006;49.696;8.662;2023-12-20T05:07:30;3.10;;;2.60;;
11893;SDS011;6006;49.696;8.662;2023-12-20T05:09:57;4.13;;;2.70;;
11893;SDS011;6006;49.696;8.662;2023-12-20T05:12:24;3.03;;;2.47;;
11893;SDS011;6006;49.696;8.662;2023-12-20T05:14:52;4.17;;;2.67;;
11893;SDS011;6006;49.696;8.662;2023-12-20T05:17:19;4.57;;;2.90;;
11893;SDS011;6006;49.696;8.662;2023-12-20T05:19:45;5.33;;;3.03;;
11893;SDS011;6006;49.696;8.662;2023-12-20T05:22:12;3.30;;;2.93;;
11893;SDS011;6006;49.696;8.662;2023-12-20T05:24:39;4.23;;;2.70;;
11893;SDS011;6006;49.696;8.662;2023-12-20T05:27:06;2.57;;;2.37;;
11893;SDS011;6006;49.696;8.662;2023-12-20T05:29:33;2.97;;;2.30;;
11893;SDS011;6006;49.696;8.662;2023-12-20T05:32:01;2.53;;;2.33;;
11893;SDS011;6006;49.696;8.662;2023-12-20T05:34:29;2.63;;;2.33;;
11893;SDS011;6006;49.696;8.662;2023-12-20T05:36:57;3.90;;;2.47;;
11893;SDS011;6006;49.696;8.662;2023-12-20T05:39:24;3.30;;;2.77;;
11893;SDS011;6006;49.696;8.662;2023-12-20T05:41:50;4.50;;;2.60;;
11893;SDS011;6006;49.696;8.662;2023-12-20T05:44:17;3.60;;;2.83;;
11893;SDS011;6006;49.696;8.662;2023-12-20T05:46:44;6.23;;;2.30;;
11893;SDS011;6006;49.696;8.662;2023-12-20T05:49:12;3.40;;;2.70;;
11893;SDS011;6006;49.696;8.662;2023-12-20T05:51:39;3.13;;;2.57;;
11893;SDS011;6006;49.696;8.662;2023-12-20T05:54:06;3.40;;;1.97;;
11893;SDS011;6006;49.696;8.662;2023-12-20T05:56:33;4.37;;;2.37;;
11893;SDS011;6006;49.696;8.662;2023-12-20T05:59:00;2.73;;;2.23;;
11893;SDS011;6006;49.696;8.662;2023-12-20T06:01:26;1.90;;;1.80;;
11893;SDS011;6006;49.696;8.662;2023-12-20T06:03:53;3.73;;;2.40;;
11893;SDS011;6006;49.696;8.662;2023-12-20T06:06:21;1.93;;;1.77;;
11893;SDS011;6006;49.696;8.662;2023-12-20T06:08:48;2.73;;;2.17;;
11893;SDS011;6006;49.696;8.662;2023-12-20T06:11:15;2.37;;;2.13;;
11893;SDS011;6006;49.696;8.662;2023-12-20T06:13:42;2.03;;;1.63;;
11893;SDS011;6006;49.696;8.662;2023-12-20T06:16:09;3.80;;;2.10;;
11893;SDS011;6006;49.696;8.662;2023-12-20T06:18:36;2.07;;;1.47;;
11893;SDS011;6006;49.696;8.662;2023-12-20T06:21:03;3.70;;;1.60;;
11893;SDS011;6006;49.696;8.662;2023-12-20T06:23:33;1.63;;;1.53;;
11893;SDS011;6006;49.696;8.662;2023-12-20T06:26:00;3.83;;;1.47;;
11893;SDS011;6006;49.696;8.662;2023-12-20T06:28:27;1.73;;;1.33;;
11893;SDS011;6006;49.696;8.662;2023-12-20T06:30:54;1.87;;;1.10;;
11893;SDS011;6006;49.696;8.662;2023-12-20T06:33:22;1.97;;;1.60;;
11893;SDS011;6006;49.696;8.662;2023-12-20T06:35:49;1.47;;;1.37;;
11893;SDS011;6006;49.696;8.662;2023-12-20T06:38:17;1.97;;;1.60;;
11893;SDS011;6006;49.696;8.662;2023-12-20T06:40:46;1.50;;;1.40;;
11893;SDS011;6006;49.696;8.662;2023-12-20T06:43:13;1.87;;;1.30;;
11893;SDS011;6006;49.696;8.662;2023-12-20T06:45:40;1.97;;;1.50;;
11893;SDS011;6006;49.696;8.662;2023-12-20T06:48:07;1.40;;;1.30;;
11893;SDS011;6006;49.696;8.662;2023-12-20T06:50:35;3.47;;;1.50;;
11893;SDS011;6006;49.696;8.662;2023-12-20T06:53:05;1.43;;;1.20;;
11893;SDS011;6006;49.696;8.662;2023-12-20T06:55:32;4.73;;;2.27;;
11893;SDS011;6006;49.696;8.662;2023-12-20T06:58:01;3.00;;;2.20;;
11893;SDS011;6006;49.696;8.662;2023-12-20T07:00:27;1.63;;;1.47;;
11893;SDS011;6006;49.696;8.662;2023-12-20T07:02:54;1.83;;;1.73;;
11893;SDS011;6006;49.696;8.662;2023-12-20T07:05:21;2.67;;;1.60;;
11893;SDS011;6006;49.696;8.662;2023-12-20T07:07:48;2.40;;;1.80;;
11893;SDS011;6006;49.696;8.662;2023-12-20T07:10:15;2.07;;;1.83;;
11893;SDS011;6006;49.696;8.662;2023-12-20T07:12:42;3.30;;;1.90;;
11893;SDS011;6006;49.696;8.662;2023-12-20T07:15:11;1.50;;;1.40;;
11893;SDS011;6006;49.696;8.662;2023-12-20T07:17:37;2.70;;;1.87;;
11893;SDS011;6006;49.696;8.662;2023-12-20T07:20:04;2.33;;;2.13;;
11893;SDS011;6006;49.696;8.662;2023-12-20T07:22:34;1.83;;;1.40;;
11893;SDS011;6006;49.696;8.662;2023-12-20T07:25:01;4.50;;;1.83;;
11893;SDS011;6006;49.696;8.662;2023-12-20T07:27:29;1.97;;;1.73;;
11893;SDS011;6006;49.696;8.662;2023-12-20T07:29:55;2.93;;;1.87;;
11893;SDS011;6006;49.696;8.662;2023-12-20T07:32:24;2.30;;;2.10;;
11893;SDS011;6006;49.696;8.662;2023-12-20T07:34:51;2.37;;;1.87;;
11893;SDS011;6006;49.696;8.662;2023-12-20T07:37:18;2.63;;;1.80;;
11893;SDS011;6006;49.696;8.662;2023-12-20T07:39:46;1.60;;;1.40;;
11893;SDS011;6006;49.696;8.662;2023-12-20T07:42:13;3.10;;;2.37;;
11893;SDS011;6006;49.696;8.662;2023-12-20T07:44:39;5.23;;;3.83;;
11893;SDS011;6006;49.696;8.662;2023-12-20T07:47:07;8.23;;;5.73;;
11893;SDS011;6006;49.696;8.662;2023-12-20T07:49:35;3.83;;;3.30;;
11893;SDS011;6006;49.696;8.662;2023-12-20T07:52:02;6.27;;;3.47;;
11893;SDS011;6006;49.696;8.662;2023-12-20T07:54:29;3.37;;;2.40;;
11893;SDS011;6006;49.696;8.662;2023-12-20T07:56:56;4.23;;;2.77;;
11893;SDS011;6006;49.696;8.662;2023-12-20T07:59:23;4.30;;;3.63;;
11893;SDS011;6006;49.696;8.662;2023-12-20T08:01:50;6.10;;;4.13;;
11893;SDS011;6006;49.696;8.662;2023-12-20T08:04:17;5.03;;;3.83;;
11893;SDS011;6006;49.696;8.662;2023-12-20T08:06:45;4.90;;;3.70;;
11893;SDS011;6006;49.696;8.662;2023-12-20T08:09:12;3.40;;;3.10;;
11893;SDS011;6006;49.696;8.662;2023-12-20T08:11:39;4.67;;;3.23;;
11893;SDS011;6006;49.696;8.662;2023-12-20T08:14:10;3.23;;;2.33;;
11893;SDS011;6006;49.696;8.662;2023-12-20T08:16:37;3.53;;;2.70;;
11893;SDS011;6006;49.696;8.662;2023-12-20T08:19:04;2.47;;;2.27;;
11893;SDS011;6006;49.696;8.662;2023-12-20T08:21:31;2.50;;;1.90;;
11893;SDS011;6006;49.696;8.662;2023-12-20T08:23:59;3.17;;;2.60;;
11893;SDS011;6006;49.696;8.662;2023-12-20T08:26:26;3.50;;;2.53;;
11893;SDS011;6006;49.696;8.662;2023-12-20T08:28:53;3.73;;;2.43;;
11893;SDS011;6006;49.696;8.662;2023-12-20T08:31:20;3.73;;;2.53;;
11893;SDS011;6006;49.696;8.662;2023-12-20T08:33:48;2.47;;;2.27;;
11893;SDS011;6006;49.696;8.662;2023-12-20T08:36:15;3.83;;;2.13;;
11893;SDS011;6006;49.696;8.662;2023-12-20T08:38:43;2.27;;;2.07;;
11893;SDS011;6006;49.696;8.662;2023-12-20T08:41:12;2.77;;;2.07;;
11893;SDS011;6006;49.696;8.662;2023-12-20T08:43:39;2.67;;;2.13;;
11893;SDS011;6006;49.696;8.662;2023-12-20T08:46:06;2.50;;;2.23;;
11893;SDS011;6006;49.696;8.662;2023-12-20T08:48:34;2.57;;;1.80;;
11893;SDS011;6006;49.696;8.662;2023-12-20T08:51:02;3.90;;;1.87;;
11893;SDS011;6006;49.696;8.662;2023-12-20T08:53:29;2.30;;;1.57;;
11893;SDS011;6006;49.696;8.662;2023-12-20T08:55:56;2.00;;;1.27;;
11893;SDS011;6006;49.696;8.662;2023-12-20T08:58:27;2.93;;;1.70;;
11893;SDS011;6006;49.696;8.662;2023-12-20T09:00:54;2.97;;;1.77;;
11893;SDS011;6006;49.696;8.662;2023-12-20T09:03:22;2.80;;;1.90;;
11893;SDS011;6006;49.696;8.662;2023-12-20T09:05:49;1.13;;;1.03;;
11893;SDS011;6006;49.696;8.662;2023-12-20T09:08:16;1.30;;;1.20;;
11893;SDS011;6006;49.696;8.662;2023-12-20T09:10:43;1.90;;;1.67;;
11893;SDS011;6006;49.696;8.662;2023-12-20T09:13:10;1.53;;;1.30;;
11893;SDS011;6006;49.696;8.662;2023-12-20T09:15:38;1.50;;;1.40;;
11893;SDS011;6006;49.696;8.662;2023-12-20T09:18:05;5.33;;;1.27;;
11893;SDS011;6006;49.696;8.662;2023-12-20T09:20:32;1.50;;;1.27;;
11893;SDS011;6006;49.696;8.662;2023-12-20T09:23:00;1.37;;;1.27;;
11893;SDS011;6006;49.696;8.662;2023-12-20T09:25:26;3.17;;;1.43;;
11893;SDS011;6006;49.696;8.662;2023-12-20T09:27:54;3.27;;;1.00;;
11893;SDS011;6006;49.696;8.662;2023-12-20T09:30:22;1.83;;;1.20;;
11893;SDS011;6006;49.696;8.662;2023-12-20T09:32:50;0.87;;;0.80;;
11893;SDS011;6006;49.696;8.662;2023-12-20T09:35:17;1.27;;;1.17;;
11893;SDS011;6006;49.696;8.662;2023-12-20T09:37:44;1.50;;;1.40;;
11893;SDS011;6006;49.696;8.662;2023-12-20T09:40:12;2.80;;;1.03;;
11893;SDS011;6006;49.696;8.662;2023-12-20T09:42:43;5.17;;;1.17;;
11893;SDS011;6006;49.696;8.662;2023-12-20T09:45:15;2.53;;;1.10;;
11893;SDS011;6006;49.696;8.662;2023-12-20T09:47:46;1.13;;;1.00;;
11893;SDS011;6006;49.696;8.662;2023-12-20T09:50:14;1.43;;;1.00;;
11893;SDS011;6006;49.696;8.662;2023-12-20T09:52:42;2.03;;;1.07;;
11893;SDS011;6006;49.696;8.662;2023-12-20T09:55:12;2.80;;;1.50;;
11893;SDS011;6006;49.696;8.662;2023-12-20T09:57:39;0.87;;;0.80;;
11893;SDS011;6006;49.696;8.662;2023-12-20T10:00:07;0.80;;;0.80;;
11893;SDS011;6006;49.696;8.662;2023-12-20T10:02:34;1.43;;;1.17;;
11893;SDS011;6006;49.696;8.662;2023-12-20T10:05:07;1.70;;;0.93;;
11893;SDS011;6006;49.696;8.662;2023-12-20T10:07:39;1.87;;;1.10;;
11893;SDS011;6006;49.696;8.662;2023-12-20T10:10:07;1.33;;;0.93;;
11893;SDS011;6006;49.696;8.662;2023-12-20T10:12:34;1.00;;;0.90;;
11893;SDS011;6006;49.696;8.662;2023-12-20T10:15:01;1.43;;;1.03;;
11893;SDS011;6006;49.696;8.662;2023-12-20T10:17:28;2.40;;;0.90;;
11893;SDS011;6006;49.696;8.662;2023-12-20T10:19:55;4.63;;;1.23;;
11893;SDS011;6006;49.696;8.662;2023-12-20T10:22:22;1.47;;;0.97;;
11893;SDS011;6006;49.696;8.662;2023-12-20T10:24:50;2.07;;;1.20;;
11893;SDS011;6006;49.696;8.662;2023-12-20T10:27:17;2.73;;;1.20;;
11893;SDS011;6006;49.696;8.662;2023-12-20T10:29:45;2.57;;;1.07;;
11893;SDS011;6006;49.696;8.662;2023-12-20T10:34:59;3.37;;;0.90;;
11893;SDS011;6006;49.696;8.662;2023-12-20T10:37:27;2.60;;;1.03;;
11893;SDS011;6006;49.696;8.662;2023-12-20T10:39:56;0.90;;;0.73;;
11893;SDS011;6006;49.696;8.662;2023-12-20T10:42:26;1.17;;;1.07;;
11893;SDS011;6006;49.696;8.662;2023-12-20T10:44:53;1.43;;;0.87;;
11893;SDS011;6006;49.696;8.662;2023-12-20T10:47:20;0.93;;;0.90;;
11893;SDS011;6006;49.696;8.662;2023-12-20T10:49:47;1.67;;;0.70;;
11893;SDS011;6006;49.696;8.662;2023-12-20T10:52:14;5.17;;;1.13;;
11893;SDS011;6006;49.696;8.662;2023-12-20T10:54:43;0.50;;;0.50;;
11893;SDS011;6006;49.696;8.662;2023-12-20T10:57:12;2.03;;;0.77;;
11893;SDS011;6006;49.696;8.662;2023-12-20T10:59:40;1.10;;;1.00;;
11893;SDS011;6006;49.696;8.662;2023-12-20T11:02:08;0.60;;;0.60;;
11893;SDS011;6006;49.696;8.662;2023-12-20T11:04:36;3.83;;;0.70;;
11893;SDS011;6006;49.696;8.662;2023-12-20T11:07:15;2.77;;;0.67;;
11893;SDS011;6006;49.696;8.662;2023-12-20T11:09:48;0.53;;;0.53;;
11893;SDS011;6006;49.696;8.662;2023-12-20T11:12:28;3.47;;;0.97;;
11893;SDS011;6006;49.696;8.662;2023-12-20T11:15:03;2.93;;;0.97;;
11893;SDS011;6006;49.696;8.662;2023-12-20T11:17:31;0.73;;;0.60;;
11893;SDS011;6006;49.696;8.662;2023-12-20T11:20:08;1.37;;;0.90;;
11893;SDS011;6006;49.696;8.662;2023-12-20T11:22:39;6.23;;;0.90;;
11893;SDS011;6006;49.696;8.662;2023-12-20T11:25:17;1.90;;;0.80;;
11893;SDS011;6006;49.696;8.662;2023-12-20T11:27:46;1.93;;;0.73;;
11893;SDS011;6006;49.696;8.662;2023-12-20T11:30:40;2.10;;;0.97;;
11893;SDS011;6006;49.696;8.662;2023-12-20T11:33:07;2.27;;;0.57;;
11893;SDS011;6006;49.696;8.662;2023-12-20T11:35:34;2.70;;;1.00;;
11893;SDS011;6006;49.696;8.662;2023-12-20T11:38:02;0.97;;;0.70;;
11893;SDS011;6006;49.696;8.662;2023-12-20T11:40:29;5.23;;;1.20;;
11893;SDS011;6006;49.696;8.662;2023-12-20T11:43:02;1.07;;;0.80;;
11893;SDS011;6006;49.696;8.662;2023-12-20T11:45:30;2.07;;;0.80;;
11893;SDS011;6006;49.696;8.662;2023-12-20T11:47:57;3.80;;;0.90;;
11893;SDS011;6006;49.696;8.662;2023-12-20T11:50:24;2.00;;;0.70;;
11893;SDS011;6006;49.696;8.662;2023-12-20T11:52:51;5.10;;;1.10;;
11893;SDS011;6006;49.696;8.662;2023-12-20T11:55:19;4.23;;;0.80;;
11893;SDS011;6006;49.696;8.662;2023-12-20T11:57:46;0.90;;;0.60;;
11893;SDS011;6006;49.696;8.662;2023-12-20T12:00:15;1.27;;;1.03;;
11893;SDS011;6006;49.696;8.662;2023-12-20T12:02:42;2.17;;;1.20;;
11893;SDS011;6006;49.696;8.662;2023-12-20T12:05:09;6.10;;;2.00;;
11893;SDS011;6006;49.696;8.662;2023-12-20T12:07:36;3.20;;;1.33;;
11893;SDS011;6006;49.696;8.662;2023-12-20T12:10:03;2.03;;;1.30;;
11893;SDS011;6006;49.696;8.662;2023-12-20T12:12:31;1.53;;;1.20;;
11893;SDS011;6006;49.696;8.662;2023-12-20T12:14:58;0.80;;;0.80;;
11893;SDS011;6006;49.696;8.662;2023-12-20T12:17:27;4.17;;;1.30;;
11893;SDS011;6006;49.696;8.662;2023-12-20T12:20:01;3.43;;;1.30;;
11893;SDS011;6006;49.696;8.662;2023-12-20T12:22:29;1.20;;;1.07;;
11893;SDS011;6006;49.696;8.662;2023-12-20T12:24:58;1.70;;;0.90;;
11893;SDS011;6006;49.696;8.662;2023-12-20T12:27:26;2.23;;;1.33;;
11893;SDS011;6006;49.696;8.662;2023-12-20T12:30:00;0.73;;;0.73;;
11893;SDS011;6006;49.696;8.662;2023-12-20T12:32:29;2.63;;;1.20;;
11893;SDS011;6006;49.696;8.662;2023-12-20T12:34:56;1.73;;;0.90;;
11893;SDS011;6006;49.696;8.662;2023-12-20T12:37:23;1.63;;;1.37;;
11893;SDS011;6006;49.696;8.662;2023-12-20T12:39:52;1.87;;;0.87;;
11893;SDS011;6006;49.696;8.662;2023-12-20T12:42:20;2.77;;;1.27;;
11893;SDS011;6006;49.696;8.662;2023-12-20T12:44:50;1.37;;;1.27;;
11893;SDS011;6006;49.696;8.662;2023-12-20T12:47:17;3.07;;;1.40;;
11893;SDS011;6006;49.696;8.662;2023-12-20T12:49:46;3.03;;;1.50;;
11893;SDS011;6006;49.696;8.662;2023-12-20T12:52:13;1.87;;;1.13;;
11893;SDS011;6006;49.696;8.662;2023-12-20T12:54:39;1.50;;;0.87;;
11893;SDS011;6006;49.696;8.662;2023-12-20T12:57:07;2.63;;;1.10;;
11893;SDS011;6006;49.696;8.662;2023-12-20T12:59:34;3.20;;;1.67;;
11893;SDS011;6006;49.696;8.662;2023-12-20T13:02:01;1.70;;;1.00;;
11893;SDS011;6006;49.696;8.662;2023-12-20T13:04:28;1.00;;;1.00;;
11893;SDS011;6006;49.696;8.662;2023-12-20T13:06:57;3.37;;;1.20;;
11893;SDS011;6006;49.696;8.662;2023-12-20T13:09:24;2.63;;;1.17;;
11893;SDS011;6006;49.696;8.662;2023-12-20T13:11:51;3.47;;;1.30;;
11893;SDS011;6006;49.696;8.662;2023-12-20T13:14:18;0.90;;;0.90;;
11893;SDS011;6006;49.696;8.662;2023-12-20T13:16:44;2.40;;;1.00;;
11893;SDS011;6006;49.696;8.662;2023-12-20T13:19:11;2.43;;;1.33;;
11893;SDS011;6006;49.696;8.662;2023-12-20T13:21:38;0.80;;;0.80;;
11893;SDS011;6006;49.696;8.662;2023-12-20T13:24:07;3.90;;;1.23;;
11893;SDS011;6006;49.696;8.662;2023-12-20T13:26:34;1.60;;;1.27;;
11893;SDS011;6006;49.696;8.662;2023-12-20T13:29:01;1.30;;;1.20;;
11893;SDS011;6006;49.696;8.662;2023-12-20T13:31:28;1.97;;;1.27;;
11893;SDS011;6006;49.696;8.662;2023-12-20T13:33:55;1.00;;;1.00;;
11893;SDS011;6006;49.696;8.662;2023-12-20T13:36:22;1.40;;;1.30;;
11893;SDS011;6006;49.696;8.662;2023-12-20T13:38:49;4.93;;;1.43;;
11893;SDS011;6006;49.696;8.662;2023-12-20T13:41:17;1.73;;;0.87;;
11893;SDS011;6006;49.696;8.662;2023-12-20T13:43:44;1.17;;;1.07;;
11893;SDS011;6006;49.696;8.662;2023-12-20T13:46:11;1.67;;;1.17;;
11893;SDS011;6006;49.696;8.662;2023-12-20T13:48:39;2.30;;;0.87;;
11893;SDS011;6006;49.696;8.662;2023-12-20T13:51:09;0.77;;;0.70;;
11893;SDS011;6006;49.696;8.662;2023-12-20T13:53:37;1.17;;;0.93;;
11893;SDS011;6006;49.696;8.662;2023-12-20T13:56:05;2.37;;;0.90;;
11893;SDS011;6006;49.696;8.662;2023-12-20T13:58:34;0.87;;;0.57;;
11893;SDS011;6006;49.696;8.662;2023-12-20T14:01:01;2.30;;;1.07;;
11893;SDS011;6006;49.696;8.662;2023-12-20T14:03:28;1.73;;;1.00;;
11893;SDS011;6006;49.696;8.662;2023-12-20T14:05:56;0.90;;;0.90;;
11893;SDS011;6006;49.696;8.662;2023-12-20T14:08:23;3.27;;;0.47;;
11893;SDS011;6006;49.696;8.662;2023-12-20T14:10:50;1.83;;;0.90;;
11893;SDS011;6006;49.696;8.662;2023-12-20T14:13:17;1.43;;;0.83;;
11893;SDS011;6006;49.696;8.662;2023-12-20T14:15:45;2.60;;;0.80;;
11893;SDS011;6006;49.696;8.662;2023-12-20T14:18:14;2.33;;;1.00;;
11893;SDS011;6006;49.696;8.662;2023-12-20T14:20:42;2.43;;;0.93;;
11893;SDS011;6006;49.696;8.662;2023-12-20T14:23:09;3.03;;;0.90;;
11893;SDS011;6006;49.696;8.662;2023-12-20T14:25:36;3.40;;;0.87;;
11893;SDS011;6006;49.696;8.662;2023-12-20T14:28:03;2.70;;;0.77;;
11893;SDS011;6006;49.696;8.662;2023-12-20T14:30:30;2.37;;;1.10;;
11893;SDS011;6006;49.696;8.662;2023-12-20T14:32:59;1.90;;;0.70;;
11893;SDS011;6006;49.696;8.662;2023-12-20T14:35:26;2.93;;;0.90;;
11893;SDS011;6006;49.696;8.662;2023-12-20T14:37:53;3.17;;;0.70;;
11893;SDS011;6006;49.696;8.662;2023-12-20T14:40:20;1.63;;;0.93;;
11893;SDS011;6006;49.696;8.662;2023-12-20T14:42:46;1.30;;;0.80;;
11893;SDS011;6006;49.696;8.662;2023-12-20T14:45:14;2.63;;;0.70;;
11893;SDS011;6006;49.696;8.662;2023-12-20T14:47:41;0.77;;;0.70;;
11893;SDS011;6006;49.696;8.662;2023-12-20T14:50:09;1.37;;;0.40;;
11893;SDS011;6006;49.696;8.662;2023-12-20T14:52:42;2.83;;;0.93;;
11893;SDS011;6006;49.696;8.662;2023-12-20T14:55:10;4.87;;;1.10;;
11893;SDS011;6006;49.696;8.662;2023-12-20T14:57:37;1.70;;;0.83;;
11893;SDS011;6006;49.696;8.662;2023-12-20T15:00:05;0.93;;;0.50;;
11893;SDS011;6006;49.696;8.662;2023-12-20T15:02:32;1.07;;;0.70;;
11893;SDS011;6006;49.696;8.662;2023-12-20T15:04:59;3.53;;;0.93;;